Time;durP1;ratioP1;P1;durP2;ratioP2;P2;SDS_P1;SDS_P2;PMS_P1;PMS_P2;Temp;Humidity;BMP_temperature;BMP_pressure;BME280_temperature;BME280_humidity;BME280_pressure;Samples;Min_cycle;Max_cycle;Signal;HPM_P1;HPM_P2
2022/08/25 00:00:31;;;;;;;5.38;4.80;;;;;;;22.96;83.92;101440.28;6181918;23;20012;-70
2022/08/25 00:02:57;;;;;;;8.88;5.13;;;;;;;22.91;84.04;101429.31;6184764;23;20005;-71
2022/08/25 00:05:27;;;;;;;8.77;5.25;;;;;;;22.90;83.86;101445.03;6184719;23;20005;-71
2022/08/25 00:07:52;;;;;;;5.75;5.18;;;;;;;22.88;84.07;101436.22;6157668;23;20023;-70
2022/08/25 00:10:19;;;;;;;9.52;5.20;;;;;;;22.80;85.30;101434.94;6183736;23;20080;-70
2022/08/25 00:12:44;;;;;;;6.45;5.40;;;;;;;22.76;86.11;101436.63;6183955;23;20001;-70
2022/08/25 00:15:10;;;;;;;7.72;5.70;;;;;;;22.78;86.76;101439.09;6185155;23;20015;-70
2022/08/25 00:17:35;;;;;;;6.82;5.18;;;;;;;22.78;86.36;101437.19;6158579;23;20001;-70
2022/08/25 00:20:01;;;;;;;9.93;5.40;;;;;;;22.74;87.67;101433.38;6184685;23;20369;-69
2022/08/25 00:22:26;;;;;;;7.38;5.55;;;;;;;22.64;89.06;101431.53;6183134;23;20032;-70
2022/08/25 00:24:51;;;;;;;14.48;5.70;;;;;;;22.54;90.79;101433.56;6185109;23;20123;-70
2022/08/25 00:27:17;;;;;;;6.93;5.53;;;;;;;22.46;92.06;101441.38;6184413;23;20009;-71
2022/08/25 00:29:42;;;;;;;5.63;5.10;;;;;;;22.50;91.53;101427.81;6183618;23;20001;-70
2022/08/25 00:32:08;;;;;;;8.05;5.00;;;;;;;22.47;92.15;101437.50;6184471;23;20029;-70
2022/08/25 00:34:37;;;;;;;6.03;5.20;;;;;;;22.31;94.27;101438.75;6185047;23;20016;-70
2022/08/25 00:37:06;;;;;;;6.47;5.20;;;;;;;22.30;95.45;101437.09;6184900;23;20012;-69
2022/08/25 00:39:32;;;;;;;6.63;5.10;;;;;;;22.34;93.98;101443.69;6184390;23;20009;-70
2022/08/25 00:41:58;;;;;;;7.10;5.65;;;;;;;22.26;96.01;101436.84;6184933;23;20016;-69
2022/08/25 00:44:27;;;;;;;7.57;5.45;;;;;;;22.26;95.43;101441.53;6183244;23;20013;-69
2022/08/25 00:46:55;;;;;;;6.38;5.50;;;;;;;22.28;95.55;101440.16;6158463;23;20009;-69
2022/08/25 00:49:31;;;;;;;6.20;5.20;;;;;;;22.20;95.21;101439.94;6184360;23;20009;-70
2022/08/25 00:51:58;;;;;;;6.50;5.43;;;;;;;22.18;95.95;101436.63;6184706;23;20025;-71
2022/08/25 00:54:30;;;;;;;7.30;5.97;;;;;;;22.15;96.37;101435.31;6184711;23;20009;-69
2022/08/25 00:56:58;;;;;;;8.60;6.03;;;;;;;22.19;95.20;101430.03;6184762;23;20025;-70
2022/08/25 00:59:25;;;;;;;6.97;6.28;;;;;;;22.21;94.14;101434.16;6157641;23;20449;-70
2022/08/25 01:01:51;;;;;;;10.43;6.90;;;;;;;22.18;94.43;101439.41;6181712;23;20029;-71
2022/08/25 01:04:17;;;;;;;8.50;6.60;;;;;;;22.18;94.29;101431.13;6182122;23;20005;-71
2022/08/25 01:06:45;;;;;;;7.85;6.13;;;;;;;22.22;93.63;101433.03;6183364;23;20025;-70
2022/08/25 01:09:13;;;;;;;8.07;6.60;;;;;;;22.24;91.24;101430.00;6181206;23;20017;-70
2022/08/25 01:11:45;;;;;;;10.48;6.85;;;;;;;22.24;90.97;101430.00;6185148;23;20024;-70
2022/08/25 01:14:19;;;;;;;10.30;7.05;;;;;;;22.19;91.95;101430.84;6184726;23;20005;-70
2022/08/25 01:16:56;;;;;;;9.55;6.57;;;;;;;22.16;92.30;101436.13;6159425;23;20013;-69
2022/08/25 01:19:30;;;;;;;10.23;7.32;;;;;;;22.06;92.11;101426.81;6184011;23;20009;-70
2022/08/25 01:22:02;;;;;;;9.82;7.28;;;;;;;22.03;91.85;101432.09;6184895;23;20012;-70
2022/08/25 01:24:39;;;;;;;9.18;7.35;;;;;;;21.91;93.66;101425.00;6184647;23;20009;-70
2022/08/25 01:27:14;;;;;;;8.25;6.72;;;;;;;21.98;92.34;101430.19;6156825;23;20016;-70
2022/08/25 01:29:48;;;;;;;11.20;7.30;;;;;;;21.93;92.43;101433.00;6184137;23;20326;-69
2022/08/25 01:32:22;;;;;;;8.80;7.03;;;;;;;21.86;91.89;101427.81;6206012;23;19989;-70
2022/08/25 01:34:53;;;;;;;11.85;7.38;;;;;;;21.89;90.75;101426.41;6202702;23;20013;-69
2022/08/25 01:37:19;;;;;;;10.15;7.05;;;;;;;21.91;89.43;101429.72;6159859;23;20016;-70
2022/08/25 01:39:45;;;;;;;13.43;7.10;;;;;;;21.91;88.11;101421.44;6186324;23;20005;-70
2022/08/25 01:42:28;;;;;;;11.43;7.20;;;;;;;21.87;88.22;101423.13;6185346;23;20036;-70
2022/08/25 01:44:54;;;;;;;8.77;7.00;;;;;;;21.84;88.57;101423.69;6184812;23;20434;-69
2022/08/25 01:47:19;;;;;;;9.93;6.72;;;;;;;21.82;88.85;101431.44;6184860;23;20077;-70
2022/08/25 01:49:45;;;;;;;13.88;7.18;;;;;;;21.81;88.25;101429.78;6185670;23;20419;-70
2022/08/25 01:52:26;;;;;;;10.70;6.38;;;;;;;21.75;87.02;101429.81;6186159;23;20417;-70
2022/08/25 01:54:52;;;;;;;9.45;6.72;;;;;;;21.68;87.25;101421.06;6186100;23;20008;-71
2022/08/25 01:57:17;;;;;;;9.73;6.35;;;;;;;21.68;86.35;101426.56;6184322;23;20005;-70
2022/08/25 01:59:43;;;;;;;10.40;6.53;;;;;;;21.58;86.87;101423.88;6185573;23;20009;-70
2022/08/25 02:02:09;;;;;;;12.27;6.55;;;;;;;21.56;86.34;101420.59;6183458;23;20008;-70
2022/08/25 02:04:34;;;;;;;13.15;6.53;;;;;;;21.69;86.59;101419.94;6186056;23;20350;-69
2022/08/25 02:07:02;;;;;;;9.23;6.15;;;;;;;21.59;85.82;101428.28;6185970;23;20028;-70
2022/08/25 02:09:28;;;;;;;10.77;6.38;;;;;;;21.62;85.92;101427.72;6183714;23;20019;-70
2022/08/25 02:11:55;;;;;;;8.73;6.18;;;;;;;21.52;86.09;101422.28;6186360;23;20087;-70
2022/08/25 02:14:20;;;;;;;9.43;6.82;;;;;;;21.50;84.36;101427.22;6185048;23;20005;-70
2022/08/25 02:16:49;;;;;;;13.18;7.05;;;;;;;21.39;86.28;101426.44;6186105;23;20415;-70
2022/08/25 02:19:15;;;;;;;11.00;6.88;;;;;;;21.41;85.31;101422.31;6184258;23;20005;-70
2022/08/25 02:21:41;;;;;;;8.32;6.50;;;;;;;21.40;86.24;101426.16;6185509;23;20083;-70
2022/08/25 02:24:07;;;;;;;10.00;6.82;;;;;;;21.42;85.21;101423.97;6159773;23;20331;-70
2022/08/25 02:26:35;;;;;;;9.18;6.35;;;;;;;21.38;85.35;101420.13;6185530;23;20008;-69
2022/08/25 02:29:00;;;;;;;8.18;6.72;;;;;;;21.31;85.34;101422.34;6185599;23;20008;-70
2022/08/25 02:31:27;;;;;;;9.82;6.38;;;;;;;21.38;84.09;101416.56;6185072;23;20084;-69
2022/08/25 02:33:53;;;;;;;12.43;7.07;;;;;;;21.36;84.46;101419.59;6185379;23;20036;-70
2022/08/25 02:36:19;;;;;;;10.98;6.35;;;;;;;21.34;83.54;101412.72;6158889;23;20005;-70
2022/08/25 02:38:45;;;;;;;7.25;6.50;;;;;;;21.31;82.39;101407.78;6185486;23;20076;-70
2022/08/25 02:41:14;;;;;;;8.63;6.50;;;;;;;21.23;82.79;101414.69;6159185;23;20024;-70
2022/08/25 02:43:41;;;;;;;14.80;6.53;;;;;;;21.33;81.87;101413.81;6185743;23;20009;-70
2022/08/25 02:46:07;;;;;;;10.00;6.78;;;;;;;21.25;82.12;101417.97;6185946;23;20009;-69
2022/08/25 02:48:33;;;;;;;12.68;7.18;;;;;;;21.19;81.93;101416.38;6184802;23;20331;-70
2022/08/25 02:51:00;;;;;;;9.75;6.70;;;;;;;21.19;81.89;101417.19;6185663;23;20005;-70
2022/08/25 02:53:27;;;;;;;13.20;6.53;;;;;;;21.17;81.80;101415.84;6184927;23;20001;-70
2022/08/25 02:55:52;;;;;;;9.00;6.65;;;;;;;21.17;82.02;101407.59;6185317;23;20005;-70
2022/08/25 02:58:18;;;;;;;8.93;6.20;;;;;;;21.20;81.44;101407.00;6185254;23;20060;-70
2022/08/25 03:00:44;;;;;;;11.63;6.43;;;;;;;21.10;81.20;101404.31;6182630;23;20643;-70
2022/08/25 03:03:10;;;;;;;7.38;6.35;;;;;;;21.10;80.59;101409.81;6158596;23;20429;-70
2022/08/25 03:05:35;;;;;;;8.73;6.10;;;;;;;21.11;79.82;101404.03;6184210;23;20075;-69
2022/08/25 03:08:01;;;;;;;7.97;6.60;;;;;;;21.04;80.37;101398.81;6184078;23;20025;-70
2022/08/25 03:10:26;;;;;;;11.48;6.45;;;;;;;21.04;79.80;101400.75;6185274;23;20481;-70
2022/08/25 03:12:52;;;;;;;16.02;6.18;;;;;;;21.03;78.75;101393.59;6185440;23;20394;-70
2022/08/25 03:15:17;;;;;;;8.45;6.63;;;;;;;21.04;79.05;101387.00;6185488;23;20056;-70
2022/08/25 03:17:48;;;;;;;11.30;6.28;;;;;;;21.06;78.30;101388.38;6185388;23;20469;-70
2022/08/25 03:20:14;;;;;;;10.02;6.15;;;;;;;21.11;77.59;101384.75;6185312;23;20012;-69
2022/08/25 03:22:39;;;;;;;13.32;6.70;;;;;;;21.04;77.13;101390.56;6158503;23;20013;-70
2022/08/25 03:27:50;;;;;;;8.48;6.10;;;;;;;20.97;75.25;101390.06;6184943;23;20155;-69
2022/08/25 03:30:16;;;;;;;11.80;6.10;;;;;;;20.96;74.89;101387.59;6159237;23;20039;-70
2022/08/25 03:32:42;;;;;;;13.43;6.60;;;;;;;20.97;75.28;101380.97;6184913;23;20001;-70
2022/08/25 03:35:08;;;;;;;9.40;5.53;;;;;;;20.95;75.52;101380.44;6185567;23;20008;-70
2022/08/25 03:37:34;;;;;;;11.50;5.88;;;;;;;20.89;75.16;101377.72;6158727;23;20056;-70
2022/08/25 03:40:02;;;;;;;11.52;6.22;;;;;;;20.84;74.67;101380.47;6185558;23;20004;-70
2022/08/25 03:42:27;;;;;;;6.55;5.85;;;;;;;20.87;75.13;101384.59;6184273;23;20006;-70
2022/08/25 03:44:53;;;;;;;10.60;6.15;;;;;;;20.86;74.61;101374.69;6184395;23;20005;-69
2022/08/25 03:47:19;;;;;;;11.57;6.40;;;;;;;20.83;74.57;101378.00;6185036;23;20048;-70
2022/08/25 03:49:44;;;;;;;8.45;5.88;;;;;;;20.84;74.26;101379.66;6159221;23;20016;-70
2022/08/25 03:52:09;;;;;;;11.48;6.20;;;;;;;20.79;75.01;101372.25;6185410;23;20009;-70
2022/08/25 03:54:35;;;;;;;13.80;6.03;;;;;;;20.80;74.24;101373.06;6185548;23;20084;-70
2022/08/25 03:57:00;;;;;;;7.72;5.90;;;;;;;20.77;73.93;101365.38;6158342;23;20059;-70
2022/08/25 03:59:26;;;;;;;9.65;6.00;;;;;;;20.77;74.19;101357.13;6158848;23;20005;-70
2022/08/25 04:01:51;;;;;;;9.77;5.82;;;;;;;20.75;74.07;101359.34;6155909;23;20084;-70
2022/08/25 04:04:17;;;;;;;11.05;6.18;;;;;;;20.70;72.50;101355.50;6185170;23;20414;-69
2022/08/25 04:06:43;;;;;;;13.73;6.43;;;;;;;20.73;72.02;101350.53;6184590;23;20005;-70
2022/08/25 04:09:09;;;;;;;11.65;6.00;;;;;;;20.70;71.50;101344.50;6183876;23;20009;-70
2022/08/25 04:11:35;;;;;;;10.55;5.70;;;;;;;20.66;71.19;101351.66;6185152;23;20423;-70
2022/08/25 04:14:01;;;;;;;10.32;5.70;;;;;;;20.69;71.21;101351.09;6185002;23;20005;-70
2022/08/25 04:16:30;;;;;;;9.18;5.82;;;;;;;20.70;69.16;101349.19;6207804;23;20074;-70
2022/08/25 04:18:57;;;;;;;10.35;5.70;;;;;;;20.76;70.05;101355.47;6202601;23;20009;-70
2022/08/25 04:21:23;;;;;;;11.57;6.03;;;;;;;20.71;68.67;101362.66;6185420;23;20062;-70
2022/08/25 04:23:51;;;;;;;10.63;5.97;;;;;;;20.76;68.83;101360.97;6185335;23;20415;-71
2022/08/25 04:26:26;;;;;;;13.02;6.15;;;;;;;20.70;68.90;101363.75;6184821;23;20008;-70
2022/08/25 04:28:52;;;;;;;9.98;6.10;;;;;;;20.74;68.04;101357.69;6184303;23;20009;-70
2022/08/25 04:31:20;;;;;;;9.20;6.15;;;;;;;20.71;68.26;101356.31;6184632;23;20009;-70
2022/08/25 04:33:46;;;;;;;10.73;6.53;;;;;;;20.70;68.15;101355.50;6184726;23;20009;-71
2022/08/25 04:36:14;;;;;;;12.02;6.53;;;;;;;20.71;67.98;101361.81;6158518;23;20351;-69
2022/08/25 04:38:41;;;;;;;11.10;6.13;;;;;;;20.76;68.37;101341.72;6184367;23;20028;-71
2022/08/25 04:41:08;;;;;;;13.43;6.00;;;;;;;20.80;67.31;101343.63;6183355;23;20005;-71
2022/08/25 04:43:34;;;;;;;13.15;6.10;;;;;;;20.78;66.36;101332.09;6184200;23;20196;-70
2022/08/25 04:46:07;;;;;;;10.55;6.10;;;;;;;20.69;66.41;101345.59;6183477;23;20005;-70
2022/08/25 04:48:33;;;;;;;11.60;5.65;;;;;;;20.74;66.46;101343.94;6184293;23;20008;-71
2022/08/25 04:51:03;;;;;;;9.15;5.78;;;;;;;20.75;67.23;101338.16;6184520;23;20008;-70
2022/08/25 04:53:29;;;;;;;15.43;5.50;;;;;;;20.73;66.53;101340.38;6184702;23;20009;-70
2022/08/25 04:55:54;;;;;;;10.02;5.95;;;;;;;20.74;66.63;101335.69;6183314;23;20005;-70
2022/08/25 04:58:19;;;;;;;10.40;6.05;;;;;;;20.70;66.06;101336.25;6184155;23;20048;-70
2022/08/25 05:00:45;;;;;;;15.30;5.53;;;;;;;20.65;66.39;101330.78;6181391;23;20073;-70
2022/08/25 05:03:10;;;;;;;10.30;5.18;;;;;;;20.68;65.95;101340.38;6158066;23;20009;-70
2022/08/25 05:05:37;;;;;;;11.73;5.32;;;;;;;20.71;65.49;101343.41;6158090;23;20005;-71
2022/08/25 05:08:04;;;;;;;9.57;5.30;;;;;;;20.69;66.13;101340.09;6184396;23;20009;-71
2022/08/25 05:10:30;;;;;;;8.57;4.90;;;;;;;20.76;66.37;101350.81;6184606;23;20009;-69
2022/08/25 05:12:55;;;;;;;9.02;4.93;;;;;;;20.80;66.19;101351.06;6184187;23;20063;-70
2022/08/25 05:18:04;;;;;;;10.70;4.43;;;;;;;20.76;65.63;101352.72;6184443;23;20020;-70
2022/08/25 05:20:30;;;;;;;13.32;4.35;;;;;;;20.80;66.19;101362.06;6184417;23;20002;-70
2022/08/25 05:22:56;;;;;;;8.25;4.40;;;;;;;20.78;65.15;101353.28;6184342;23;20486;-70
2022/08/25 05:25:21;;;;;;;10.43;4.32;;;;;;;20.73;66.06;101367.03;6158338;23;20016;-71
2022/08/25 05:27:47;;;;;;;10.23;4.60;;;;;;;20.76;64.59;101366.47;6184408;23;20004;-70
2022/08/25 05:30:12;;;;;;;9.68;4.28;;;;;;;20.80;64.13;101373.88;6184116;23;20426;-70
2022/08/25 05:32:38;;;;;;;10.93;4.15;;;;;;;20.90;64.76;101367.53;6184063;23;20032;-70
2022/08/25 05:35:05;;;;;;;8.75;3.88;;;;;;;20.93;64.25;101372.47;6158008;23;20004;-70
2022/08/25 05:37:31;;;;;;;8.40;4.20;;;;;;;21.01;64.54;101377.38;6183649;23;20005;-70
2022/08/25 05:39:57;;;;;;;10.27;4.13;;;;;;;21.03;63.15;101377.94;6184602;23;20079;-71
2022/08/25 05:42:23;;;;;;;7.25;4.05;;;;;;;21.10;62.76;101371.28;6184593;23;20091;-70
2022/08/25 05:44:48;;;;;;;6.57;3.58;;;;;;;21.13;61.72;101374.28;6183897;23;20005;-71
2022/08/25 05:47:13;;;;;;;9.63;4.20;;;;;;;21.21;62.42;101378.38;6158230;23;20017;-70
2022/08/25 05:49:39;;;;;;;9.00;3.83;;;;;;;21.25;61.65;101374.75;6158007;23;20085;-70
2022/08/25 05:52:04;;;;;;;6.07;3.65;;;;;;;21.24;62.46;101375.88;6184650;23;20033;-70
2022/08/25 05:54:30;;;;;;;10.07;4.30;;;;;;;21.30;60.96;101379.41;6157552;23;20542;-71
2022/08/25 05:56:56;;;;;;;9.00;3.95;;;;;;;21.31;61.89;101377.50;6184804;23;20007;-69
2022/08/25 05:59:22;;;;;;;8.05;3.90;;;;;;;21.37;60.68;101379.09;6186356;23;20028;-69
2022/08/25 06:04:31;;;;;;;7.75;3.80;;;;;;;21.40;60.24;101389.56;6185892;23;20020;-70
2022/08/25 06:06:56;;;;;;;13.50;4.18;;;;;;;21.48;60.72;101391.69;6186348;23;20009;-71
2022/08/25 06:09:23;;;;;;;7.70;3.30;;;;;;;21.51;60.47;101387.56;6186427;23;20013;-71
2022/08/25 06:11:48;;;;;;;7.15;3.50;;;;;;;21.52;60.47;101384.53;6159676;23;20439;-70
2022/08/25 06:14:14;;;;;;;7.82;3.70;;;;;;;21.54;60.14;101382.34;6159529;23;20016;-71
2022/08/25 06:16:40;;;;;;;11.20;3.58;;;;;;;21.63;60.06;101379.78;6184830;23;20005;-69
2022/08/25 06:19:07;;;;;;;10.38;4.00;;;;;;;21.65;59.67;101394.09;6186467;23;20083;-69
2022/08/25 06:21:33;;;;;;;8.35;3.83;;;;;;;21.63;60.28;101379.78;6185562;23;20035;-69
2022/08/25 06:23:58;;;;;;;10.52;3.78;;;;;;;21.68;59.39;101381.66;6168638;23;20001;-69
2022/08/25 06:26:24;;;;;;;5.53;3.70;;;;;;;21.75;59.57;101376.66;6201572;23;20079;-69
2022/08/25 06:28:50;;;;;;;5.97;3.40;;;;;;;21.83;59.74;101386.22;6186273;23;20009;-71
2022/08/25 06:31:16;;;;;;;7.40;3.50;;;;;;;21.83;58.95;101389.84;6183990;23;20037;-69
2022/08/25 06:33:43;;;;;;;10.02;4.28;;;;;;;21.91;58.32;101377.38;6184202;23;20335;-71
2022/08/25 06:36:08;;;;;;;10.52;4.30;;;;;;;21.92;58.39;101390.00;6184201;23;20005;-70
2022/08/25 06:38:33;;;;;;;9.07;3.83;;;;;;;21.96;58.27;101377.31;6184986;23;20334;-70
2022/08/25 06:41:04;;;;;;;8.02;4.00;;;;;;;22.00;58.14;101383.91;6185135;23;20475;-69
2022/08/25 06:43:31;;;;;;;9.55;3.80;;;;;;;22.06;57.55;101388.25;6159300;23;20013;-69
2022/08/25 06:45:57;;;;;;;10.70;3.95;;;;;;;22.06;57.44;101382.72;6159475;23;20043;-70
2022/08/25 06:48:23;;;;;;;8.40;3.72;;;;;;;22.15;56.71;101385.69;6185911;23;20009;-69
2022/08/25 06:50:48;;;;;;;6.25;3.55;;;;;;;22.19;57.71;101383.16;6184718;23;20028;-69
2022/08/25 06:53:14;;;;;;;11.02;4.05;;;;;;;22.25;56.90;101382.84;6185844;23;20005;-69
2022/08/25 06:55:46;;;;;;;13.35;3.95;;;;;;;22.34;57.19;101396.81;6184782;23;20001;-69
2022/08/25 06:58:23;;;;;;;12.35;3.78;;;;;;;22.36;57.20;101385.50;6184623;23;20013;-69
2022/08/25 07:00:51;;;;;;;12.23;3.88;;;;;;;22.44;55.98;101380.16;6187185;23;20004;-69
2022/08/25 07:03:16;;;;;;;6.00;3.50;;;;;;;22.51;56.54;101384.50;6185366;23;20048;-69
2022/08/25 07:05:50;;;;;;;10.57;3.80;;;;;;;22.56;56.48;101378.97;6190813;23;20012;-69
2022/08/25 07:08:15;;;;;;;8.23;3.30;;;;;;;22.63;55.56;101379.41;6184880;23;20048;-69
2022/08/25 07:11:26;;;;;;;10.40;3.50;;;;;;;22.66;56.35;101376.06;6159564;23;20016;-70
2022/08/25 07:13:52;;;;;;;;;;;;;;;22.74;57.05;101374.63;6185799;23;20009;-70
2022/08/25 07:16:19;;;;;;;10.52;3.55;;;;;;;22.77;54.43;101369.31;6185476;23;19947;-70
2022/08/25 07:18:45;;;;;;;10.20;3.55;;;;;;;22.81;54.99;101370.38;6182835;23;20411;-70
2022/08/25 07:21:12;;;;;;;12.23;3.53;;;;;;;22.84;55.11;101363.41;6185335;23;20005;-70
2022/08/25 07:23:38;;;;;;;8.35;3.22;;;;;;;22.88;55.15;101369.19;6185397;23;20001;-70
2022/08/25 07:26:12;;;;;;;10.88;3.55;;;;;;;22.91;55.78;101369.41;6159265;23;20005;-70
2022/08/25 07:28:38;;;;;;;7.35;3.25;;;;;;;23.01;55.49;101369.28;6185434;23;20080;-69
2022/08/25 07:31:04;;;;;;;10.30;3.70;;;;;;;23.12;54.84;101378.25;6183993;23;20087;-70
2022/08/25 07:33:29;;;;;;;8.40;3.75;;;;;;;23.18;54.58;101366.03;6185211;23;20001;-70
2022/08/25 07:35:56;;;;;;;10.05;3.40;;;;;;;23.25;53.80;101364.84;6184102;23;20005;-70
2022/08/25 07:38:21;;;;;;;10.75;3.25;;;;;;;23.34;54.50;101366.66;6184925;23;20120;-70
2022/08/25 07:40:53;;;;;;;8.27;3.35;;;;;;;23.43;53.87;101364.03;6184034;23;20431;-70
2022/08/25 07:43:18;;;;;;;10.43;3.55;;;;;;;23.49;54.65;101367.50;6185005;23;20075;-71
2022/08/25 07:45:44;;;;;;;10.23;3.30;;;;;;;23.51;53.51;101366.09;6184655;23;20419;-71
2022/08/25 07:48:10;;;;;;;8.75;3.22;;;;;;;23.54;53.90;101362.75;6185171;23;20001;-74
2022/08/25 07:50:40;;;;;;;16.38;3.22;;;;;;;23.58;53.71;101371.22;6158924;23;20001;-71
2022/08/25 07:53:06;;;;;;;12.88;3.25;;;;;;;23.63;53.57;101362.06;6185173;23;20330;-73
2022/08/25 07:55:35;;;;;;;6.78;3.10;;;;;;;23.69;53.46;101358.09;6184785;23;20005;-72
2022/08/25 07:58:02;;;;;;;10.32;3.08;;;;;;;23.78;54.41;101358.22;6184790;23;20001;-70
2022/08/25 08:00:29;;;;;;;12.85;3.25;;;;;;;23.82;53.72;101360.06;6183283;23;20012;-70
2022/08/25 08:02:56;;;;;;;11.82;3.17;;;;;;;23.90;53.59;101366.91;6184415;23;20059;-71
2022/08/25 08:05:22;;;;;;;19.08;3.63;;;;;;;23.93;53.76;101365.44;6185309;23;20005;-70
2022/08/25 08:07:47;;;;;;;7.43;3.38;;;;;;;24.00;53.00;101360.34;6184865;23;20048;-70
2022/08/25 08:10:14;;;;;;;89.97;6.07;;;;;;;24.06;52.50;101365.50;6185315;23;20005;-70
2022/08/25 08:12:41;;;;;;;45.38;4.47;;;;;;;24.15;53.19;101356.50;6184304;23;20001;-70
2022/08/25 08:15:07;;;;;;;10.38;2.90;;;;;;;24.19;52.78;101363.88;6158290;23;20005;-71
2022/08/25 08:17:32;;;;;;;13.10;3.13;;;;;;;24.29;54.25;101356.50;6184596;23;20012;-67
2022/08/25 08:19:58;;;;;;;10.95;3.17;;;;;;;24.32;52.73;101350.38;6184364;23;20001;-69
2022/08/25 08:22:23;;;;;;;20.38;3.75;;;;;;;24.41;52.59;101351.28;6185190;23;20036;-69
2022/08/25 08:24:49;;;;;;;11.20;2.97;;;;;;;24.44;53.39;101352.63;6184851;23;20004;-68
2022/08/25 08:27:14;;;;;;;9.80;3.00;;;;;;;24.62;52.60;101354.50;6184736;23;20012;-68
2022/08/25 08:29:40;;;;;;;7.75;2.80;;;;;;;24.65;52.95;101353.06;6182961;23;20039;-69
2022/08/25 08:32:08;;;;;;;10.45;3.30;;;;;;;24.73;51.66;101349.56;6184280;23;20051;-70
2022/08/25 08:34:34;;;;;;;9.88;3.00;;;;;;;24.74;51.82;101353.97;6184970;23;20013;-70
2022/08/25 08:37:01;;;;;;;15.15;3.17;;;;;;;24.77;51.58;101353.34;6182841;23;20001;-69
2022/08/25 08:39:27;;;;;;;7.78;3.35;;;;;;;24.84;51.71;101348.22;6184122;23;20080;-69
2022/08/25 08:42:17;;;;;;;9.32;2.80;;;;;;;24.93;51.68;101349.13;6184240;23;20001;-71
2022/08/25 08:44:46;;;;;;;5.63;2.65;;;;;;;24.92;51.45;101341.94;6184646;23;20019;-71
2022/08/25 08:47:27;;;;;;;11.20;2.97;;;;;;;25.01;51.05;101344.81;6184215;23;20009;-69
2022/08/25 08:50:23;;;;;;;11.02;3.17;;;;;;;25.06;51.73;101346.63;6184926;23;20012;-71
2022/08/25 08:52:56;;;;;;;8.73;2.88;;;;;;;25.13;51.17;101341.50;6183771;23;20055;-70
2022/08/25 08:55:27;;;;;;;9.82;2.80;;;;;;;25.19;50.26;101340.25;6183811;23;20009;-70
2022/08/25 08:57:54;;;;;;;;;;;;;;;25.22;51.93;101345.16;6183034;23;20422;-70
2022/08/25 09:00:20;;;;;;;9.70;2.70;;;;;;;25.38;50.03;101348.44;6201256;23;19931;-73
2022/08/25 09:02:45;;;;;;;11.43;3.10;;;;;;;25.46;49.32;101349.63;6182408;23;20009;-72
2022/08/25 09:05:13;;;;;;;14.25;3.15;;;;;;;25.55;49.11;101344.97;6158271;23;20009;-71
2022/08/25 09:07:47;;;;;;;7.90;2.60;;;;;;;25.70;49.06;101338.22;6182884;23;20060;-70
2022/08/25 09:10:14;;;;;;;7.45;2.63;;;;;;;25.82;48.39;101346.78;6184143;23;20020;-69
2022/08/25 09:12:49;;;;;;;8.05;2.40;;;;;;;25.92;49.24;101350.41;6181527;23;20013;-68
2022/08/25 09:18:39;;;;;;;8.32;3.08;;;;;;;26.15;48.81;101348.47;6184102;23;20097;-71
2022/08/25 09:21:19;;;;;;;6.60;2.80;;;;;;;26.29;48.81;101342.81;6157997;23;20020;-70
2022/08/25 09:24:06;;;;;;;8.52;3.00;;;;;;;26.35;47.47;101339.56;6183220;23;20032;-70
2022/08/25 09:27:00;;;;;;;7.95;2.60;;;;;;;26.44;46.95;101333.25;6184234;23;20008;-69
2022/08/25 09:29:40;;;;;;;7.70;2.40;;;;;;;26.55;45.82;101337.34;6180212;23;20304;-70
2022/08/25 09:32:06;;;;;;;6.50;2.50;;;;;;;26.63;44.83;101346.84;6158420;23;20092;-69
2022/08/25 09:34:33;;;;;;;4.18;2.30;;;;;;;26.76;45.77;101345.91;6181561;23;20028;-70
2022/08/25 09:37:00;;;;;;;7.75;2.85;;;;;;;26.82;43.19;101347.41;6184678;23;20009;-70
2022/08/25 09:39:25;;;;;;;5.63;2.28;;;;;;;26.85;42.00;101343.97;6185405;23;20315;-74
2022/08/25 09:41:55;;;;;;;6.78;2.72;;;;;;;26.95;43.21;101345.63;6158444;23;20006;-71
2022/08/25 09:44:33;;;;;;;5.75;2.50;;;;;;;26.91;43.47;101339.09;6210287;23;20180;-70
2022/08/25 09:47:03;;;;;;;8.32;2.30;;;;;;;27.08;41.90;101335.50;6196219;23;20016;-70
2022/08/25 09:49:39;;;;;;;6.57;2.50;;;;;;;27.15;41.43;101332.25;6186445;23;20419;-70
2022/08/25 09:52:39;;;;;;;5.32;2.30;;;;;;;27.30;43.16;101331.75;6185084;23;20012;-73
2022/08/25 09:55:04;;;;;;;2.87;2.10;;;;;;;27.34;40.93;101318.88;6158317;23;20088;-70
2022/08/25 09:57:42;;;;;;;5.60;2.30;;;;;;;27.57;42.19;101313.94;6184973;23;20047;-69
2022/08/25 10:00:32;;;;;;;2.22;2.00;;;;;;;27.57;41.87;101318.69;6184539;23;20036;-71
2022/08/25 10:03:09;;;;;;;5.30;2.47;;;;;;;27.61;41.41;101304.94;6185549;23;20001;-72
2022/08/25 10:05:47;;;;;;;7.97;2.22;;;;;;;27.61;39.81;101302.97;6186268;23;20001;-69
2022/08/25 10:08:33;;;;;;;4.18;2.20;;;;;;;27.71;40.58;101297.06;6186333;23;20431;-70
2022/08/25 10:11:01;;;;;;;4.43;1.90;;;;;;;27.89;38.83;101302.59;6184980;23;20009;-71
2022/08/25 10:13:41;;;;;;;3.60;2.03;;;;;;;27.97;39.28;101298.16;6182758;23;20339;-73
2022/08/25 10:16:09;;;;;;;;;;;;;;;28.00;41.81;101292.75;6184341;23;20005;-70
2022/08/25 10:18:34;;;;;;;5.53;2.20;;;;;;;28.18;37.31;101295.47;6159922;23;19908;-71
2022/08/25 10:21:02;;;;;;;6.30;2.10;;;;;;;28.21;37.54;101297.59;6185721;23;20009;-70
2022/08/25 10:23:28;;;;;;;5.30;1.80;;;;;;;28.28;35.92;101290.34;6186262;23;20024;-70
2022/08/25 10:25:58;;;;;;;5.35;2.00;;;;;;;28.41;36.07;101282.06;6185672;23;20005;-69
2022/08/25 10:28:30;;;;;;;6.45;2.65;;;;;;;28.44;35.75;101273.06;6185860;23;20005;-68
2022/08/25 10:31:09;;;;;;;4.22;1.75;;;;;;;28.42;34.96;101281.75;6185863;23;20024;-69
2022/08/25 10:34:01;;;;;;;3.17;1.80;;;;;;;28.41;37.54;101280.13;6185384;23;20005;-69
2022/08/25 10:36:41;;;;;;;7.15;1.90;;;;;;;28.43;37.29;101269.47;6185445;23;20001;-69
2022/08/25 10:39:22;;;;;;;5.20;1.80;;;;;;;28.50;36.29;101263.34;6185466;23;20060;-69
2022/08/25 10:42:02;;;;;;;5.03;2.47;;;;;;;28.44;37.87;101268.31;6185185;23;20415;-72
2022/08/25 10:47:37;;;;;;;5.63;2.22;;;;;;;28.47;38.84;101258.47;6185691;23;20075;-68
2022/08/25 10:50:13;;;;;;;2.42;1.90;;;;;;;28.56;38.32;101261.19;6185748;23;20001;-68
2022/08/25 10:53:16;;;;;;;5.70;2.03;;;;;;;28.60;39.00;101248.25;6185069;23;20005;-70
2022/08/25 10:56:21;;;;;;;4.00;2.20;;;;;;;28.68;39.70;101244.59;6185981;23;19997;-72
2022/08/25 10:59:19;;;;;;;6.57;2.45;;;;;;;28.81;39.44;101243.50;6166747;23;20032;-71
2022/08/25 11:02:06;;;;;;;7.63;2.33;;;;;;;28.95;39.69;101247.97;6152316;23;20374;-70
2022/08/25 11:04:47;;;;;;;8.98;2.78;;;;;;;29.10;39.88;101243.75;6184873;23;20473;-70
2022/08/25 11:07:25;;;;;;;6.85;2.50;;;;;;;29.23;40.33;101245.47;6185465;23;20005;-70
2022/08/25 11:09:57;;;;;;;7.57;2.35;;;;;;;29.25;39.50;101239.56;6184981;23;20024;-69
2022/08/25 11:12:37;;;;;;;5.00;2.30;;;;;;;29.39;39.81;101234.47;6189019;23;20412;-74
2022/08/25 11:15:09;;;;;;;4.05;2.30;;;;;;;29.49;39.24;101230.44;6196848;23;20036;-72
2022/08/25 11:17:46;;;;;;;8.48;2.50;;;;;;;29.54;37.87;101229.41;6186384;23;20051;-71
2022/08/25 11:20:16;;;;;;;8.63;2.20;;;;;;;29.62;35.97;101223.72;6184417;23;20005;-71
2022/08/25 11:23:05;;;;;;;;;;;;;;;29.63;38.49;101227.31;6159138;23;20005;-71
2022/08/25 11:26:04;;;;;;;6.75;2.45;;;;;;;29.75;37.12;101218.97;6176242;23;19904;-72
2022/08/25 11:28:39;;;;;;;6.57;2.20;;;;;;;29.83;35.37;101223.66;6164199;23;20032;-73
2022/08/25 11:31:07;;;;;;;4.68;2.10;;;;;;;29.94;35.67;101220.38;6184336;23;20415;-73
2022/08/25 11:33:38;;;;;;;7.78;2.60;;;;;;;30.00;35.00;101216.19;6158531;23;20009;-73
2022/08/25 11:36:16;;;;;;;9.30;2.50;;;;;;;30.08;35.86;101215.28;6182110;23;20397;-73
2022/08/25 11:39:00;;;;;;;6.65;2.20;;;;;;;30.17;35.81;101218.75;6157491;23;20009;-70
2022/08/25 11:41:44;;;;;;;7.57;2.15;;;;;;;30.18;34.67;101217.59;6158031;23;20008;-70
2022/08/25 11:44:40;;;;;;;10.30;2.25;;;;;;;30.36;35.61;101222.91;6182574;23;20005;-70
2022/08/25 11:47:33;;;;;;;7.05;1.92;;;;;;;30.34;34.10;101205.72;6158171;23;20009;-70